createdAt,value
2018-08-17T00:00:22.012Z,0.00
2018-08-17T00:01:21.991Z,0.00
2018-08-17T00:02:21.968Z,0.00
2018-08-17T00:03:21.963Z,0.00
2018-08-17T00:04:21.921Z,0.00
2018-08-17T00:05:21.951Z,0.00
2018-08-17T00:06:21.885Z,0.00
2018-08-17T00:07:21.845Z,0.00
2018-08-17T00:08:21.820Z,0.00
2018-08-17T00:09:21.796Z,0.00
2018-08-17T00:10:21.772Z,0.00
2018-08-17T00:11:21.746Z,0.00
2018-08-17T00:12:21.725Z,0.00
2018-08-17T00:13:21.706Z,0.00
2018-08-17T00:14:21.672Z,0.00
2018-08-17T00:15:21.645Z,0.00
2018-08-17T00:16:21.631Z,0.00
2018-08-17T00:17:21.607Z,0.00
2018-08-17T00:18:21.588Z,0.00
2018-08-17T00:19:21.555Z,0.00
2018-08-17T00:20:21.535Z,0.00
2018-08-17T00:21:21.511Z,0.00
2018-08-17T00:22:21.486Z,0.00
2018-08-17T00:23:21.461Z,0.00
2018-08-17T00:24:21.429Z,0.00
2018-08-17T00:25:21.407Z,0.00
2018-08-17T00:26:21.385Z,0.00
2018-08-17T00:27:21.359Z,0.00
2018-08-17T00:28:21.398Z,0.00
2018-08-17T00:29:21.312Z,0.00
2018-08-17T00:30:21.285Z,0.00
2018-08-17T00:31:21.266Z,0.00
2018-08-17T00:32:21.231Z,0.00
2018-08-17T00:33:21.218Z,0.00
2018-08-17T00:34:21.184Z,0.00
2018-08-17T00:35:21.161Z,0.00
2018-08-17T00:36:21.142Z,0.00
2018-08-17T00:37:21.117Z,0.00
2018-08-17T00:38:21.090Z,0.00
2018-08-17T00:39:21.066Z,0.00
2018-08-17T00:40:21.049Z,0.00
2018-08-17T00:41:21.011Z,0.00
2018-08-17T00:42:20.996Z,0.00
2018-08-17T00:43:21.005Z,0.00
2018-08-17T00:44:20.938Z,0.00
2018-08-17T00:45:20.916Z,0.00
2018-08-17T00:46:20.916Z,0.00
2018-08-17T00:47:20.871Z,0.00
2018-08-17T00:48:20.847Z,0.00
2018-08-17T00:49:20.817Z,0.00
2018-08-17T00:50:20.800Z,0.00
2018-08-17T00:51:20.767Z,0.00
2018-08-17T00:52:20.759Z,0.00
2018-08-17T00:53:20.724Z,0.00
2018-08-17T00:54:20.697Z,0.00
2018-08-17T00:55:20.671Z,0.00
2018-08-17T00:56:20.653Z,0.00
2018-08-17T00:57:20.629Z,0.00
2018-08-17T00:58:20.607Z,0.00
2018-08-17T00:59:20.572Z,0.00
2018-08-17T01:00:20.556Z,0.00
2018-08-17T01:01:20.528Z,0.00
2018-08-17T01:02:20.504Z,0.00
2018-08-17T01:03:20.476Z,0.00
2018-08-17T01:04:20.456Z,0.00
2018-08-17T01:05:20.438Z,0.00
2018-08-17T01:06:20.404Z,0.00
2018-08-17T01:07:20.385Z,0.00
2018-08-17T01:08:20.380Z,0.00
2018-08-17T01:09:20.334Z,0.00
2018-08-17T01:10:20.309Z,0.00
2018-08-17T01:11:20.285Z,0.00
2018-08-17T01:12:20.264Z,0.00
2018-08-17T01:13:20.235Z,0.00
2018-08-17T01:14:20.221Z,0.00
2018-08-17T01:15:20.186Z,0.00
2018-08-17T01:16:20.159Z,0.00
2018-08-17T01:17:20.143Z,0.00
2018-08-17T01:18:20.117Z,0.00
2018-08-17T01:19:20.086Z,0.00
2018-08-17T01:20:20.064Z,0.00
2018-08-17T01:21:20.042Z,0.00
2018-08-17T01:22:20.012Z,0.00
2018-08-17T01:23:19.997Z,0.00
2018-08-17T01:24:19.963Z,0.00
2018-08-17T01:25:19.940Z,0.00
2018-08-17T01:26:19.942Z,0.00
2018-08-17T01:27:19.893Z,0.00
2018-08-17T01:28:19.873Z,0.00
2018-08-17T01:29:19.839Z,0.00
2018-08-17T01:30:19.819Z,0.00
2018-08-17T01:31:19.799Z,0.00
2018-08-17T01:32:19.764Z,0.00
2018-08-17T01:33:19.743Z,0.00
2018-08-17T01:34:19.724Z,0.00
2018-08-17T01:35:19.698Z,0.00
2018-08-17T01:36:19.681Z,0.00
2018-08-17T01:37:19.653Z,0.00
2018-08-17T01:38:19.622Z,0.00
2018-08-17T01:39:19.601Z,0.00
2018-08-17T01:40:19.573Z,0.00
2018-08-17T01:41:19.546Z,0.00
2018-08-17T01:42:19.531Z,0.00
2018-08-17T01:43:19.499Z,0.00
2018-08-17T01:44:19.481Z,0.00
2018-08-17T01:45:19.451Z,0.00
2018-08-17T01:46:19.426Z,0.00
2018-08-17T01:47:19.411Z,0.00
2018-08-17T01:48:19.382Z,0.00
2018-08-17T01:49:19.353Z,0.00
2018-08-17T01:50:19.333Z,0.00
2018-08-17T01:51:19.310Z,0.00
2018-08-17T01:52:19.304Z,0.00
2018-08-17T01:53:19.342Z,0.00
2018-08-17T01:54:19.311Z,0.00
2018-08-17T01:55:19.228Z,0.00
2018-08-17T01:56:19.301Z,0.00
2018-08-17T01:57:19.179Z,0.00
2018-08-17T01:58:19.201Z,0.00
2018-08-17T01:59:19.156Z,0.00
2018-08-17T02:00:19.184Z,0.00
2018-08-17T02:01:19.060Z,0.00
2018-08-17T02:02:19.037Z,0.00
2018-08-17T02:03:19.007Z,0.00
2018-08-17T02:04:18.987Z,0.00
2018-08-17T02:05:18.974Z,0.00
2018-08-17T02:06:18.938Z,0.00
2018-08-17T02:07:18.912Z,0.00
2018-08-17T02:08:18.896Z,0.00
2018-08-17T02:09:18.871Z,0.00
2018-08-17T02:10:18.841Z,0.00
2018-08-17T02:11:18.818Z,0.00
2018-08-17T02:12:18.787Z,0.00
2018-08-17T02:13:18.771Z,0.00
2018-08-17T02:14:18.741Z,0.00
2018-08-17T02:15:18.713Z,0.00
2018-08-17T02:16:18.700Z,0.00
2018-08-17T02:17:18.663Z,0.00
2018-08-17T02:18:18.649Z,0.00
2018-08-17T02:19:18.615Z,0.00
2018-08-17T02:20:18.600Z,0.00
2018-08-17T02:21:18.565Z,0.00
2018-08-17T02:22:18.544Z,0.00
2018-08-17T02:23:18.513Z,0.00
2018-08-17T02:24:18.525Z,0.00
2018-08-17T02:25:18.465Z,0.00
2018-08-17T02:26:18.449Z,0.00
2018-08-17T02:27:18.424Z,0.00
2018-08-17T02:28:18.401Z,0.00
2018-08-17T02:29:18.369Z,0.00
2018-08-17T02:30:18.342Z,0.00
2018-08-17T02:31:18.322Z,0.00
2018-08-17T02:32:18.288Z,0.00
2018-08-17T02:33:18.276Z,0.00
2018-08-17T02:34:18.253Z,0.00
2018-08-17T02:35:18.216Z,0.00
2018-08-17T02:36:18.215Z,0.00
2018-08-17T02:37:18.163Z,0.00
2018-08-17T02:38:18.146Z,0.00
2018-08-17T02:39:18.116Z,0.00
2018-08-17T02:40:18.088Z,0.00
2018-08-17T02:41:18.067Z,0.00
2018-08-17T02:42:18.045Z,0.00
2018-08-17T02:43:18.021Z,0.00
2018-08-17T02:44:17.988Z,0.00
2018-08-17T02:45:17.974Z,0.00
2018-08-17T02:46:17.942Z,0.00
2018-08-17T02:47:17.919Z,0.00
2018-08-17T02:48:17.890Z,0.00
2018-08-17T02:49:17.875Z,0.00
2018-08-17T02:50:17.842Z,0.00
2018-08-17T02:51:17.822Z,0.00
2018-08-17T02:52:17.793Z,0.00
2018-08-17T02:53:17.765Z,0.00
2018-08-17T02:54:17.739Z,0.00
2018-08-17T02:55:17.712Z,0.00
2018-08-17T02:56:17.687Z,0.00
2018-08-17T02:57:17.667Z,0.00
2018-08-17T02:58:17.639Z,0.00
2018-08-17T02:59:17.618Z,0.00
2018-08-17T03:00:17.589Z,0.00
2018-08-17T03:01:17.565Z,0.00
2018-08-17T03:02:17.553Z,0.00
2018-08-17T03:03:17.513Z,0.00
2018-08-17T03:04:17.490Z,0.00
2018-08-17T03:05:17.488Z,0.00
2018-08-17T03:06:17.436Z,0.00
2018-08-17T03:07:17.408Z,0.00
2018-08-17T03:08:17.394Z,0.00
2018-08-17T03:09:17.365Z,0.00
2018-08-17T03:10:17.341Z,0.00
2018-08-17T03:11:17.310Z,0.00
2018-08-17T03:12:17.293Z,0.00
2018-08-17T03:13:17.266Z,0.00
2018-08-17T03:14:17.234Z,0.00
2018-08-17T03:15:17.211Z,0.00
2018-08-17T03:16:17.191Z,0.00
2018-08-17T03:17:17.168Z,0.00
2018-08-17T03:18:17.134Z,0.00
2018-08-17T03:19:17.114Z,0.00
2018-08-17T03:20:17.100Z,0.00
2018-08-17T03:21:17.060Z,0.00
2018-08-17T03:22:17.041Z,0.00
2018-08-17T03:23:17.008Z,0.00
2018-08-17T03:24:16.987Z,0.00
2018-08-17T03:25:16.959Z,0.00
2018-08-17T03:26:16.929Z,0.00
2018-08-17T03:27:16.903Z,0.00
2018-08-17T03:28:16.886Z,0.00
2018-08-17T03:29:16.852Z,0.00
2018-08-17T03:30:16.843Z,0.00
2018-08-17T03:31:16.803Z,0.00
2018-08-17T03:32:16.790Z,0.00
2018-08-17T03:33:16.752Z,0.00
2018-08-17T03:34:16.736Z,0.00
2018-08-17T03:35:16.705Z,0.00
2018-08-17T03:36:16.682Z,0.00
2018-08-17T03:37:16.695Z,0.00
2018-08-17T03:38:16.698Z,0.00
2018-08-17T03:39:16.602Z,0.00
2018-08-17T03:40:16.599Z,0.00
2018-08-17T03:41:16.566Z,0.00
2018-08-17T03:42:16.528Z,0.00
2018-08-17T03:43:16.512Z,0.00
2018-08-17T03:44:16.475Z,0.00
2018-08-17T03:45:16.455Z,0.00
2018-08-17T03:46:16.429Z,0.00
2018-08-17T03:47:16.406Z,0.00
2018-08-17T03:48:16.373Z,0.00
2018-08-17T03:49:16.364Z,0.00
2018-08-17T03:50:16.324Z,0.00
2018-08-17T03:51:16.302Z,0.00
2018-08-17T03:52:16.275Z,0.00
2018-08-17T03:53:16.256Z,0.00
2018-08-17T03:54:16.223Z,0.00
2018-08-17T03:55:16.217Z,0.00
2018-08-17T03:56:16.168Z,4.00
2018-08-17T03:57:16.147Z,4.00
2018-08-17T03:58:16.124Z,0.00
2018-08-17T03:59:16.092Z,4.00
2018-08-17T04:00:16.077Z,4.00
2018-08-17T04:01:16.046Z,4.00
2018-08-17T04:02:16.041Z,8.00
2018-08-17T04:03:15.997Z,8.00
2018-08-17T04:04:15.970Z,8.00
2018-08-17T04:05:15.942Z,8.00
2018-08-17T04:06:15.925Z,8.00
2018-08-17T04:07:15.897Z,12.00
2018-08-17T04:08:15.874Z,12.00
2018-08-17T04:09:15.852Z,16.00
2018-08-17T04:10:15.817Z,16.00
2018-08-17T04:11:15.794Z,16.00
2018-08-17T04:12:15.767Z,20.00
2018-08-17T04:13:15.739Z,20.00
2018-08-17T04:14:15.722Z,28.00
2018-08-17T04:15:15.693Z,28.00
2018-08-17T04:16:15.670Z,32.00
2018-08-17T04:17:15.640Z,36.00
2018-08-17T04:18:15.621Z,40.00
2018-08-17T04:19:15.608Z,44.00
2018-08-17T04:20:15.561Z,44.00
2018-08-17T04:21:15.542Z,48.00
2018-08-17T04:22:15.520Z,52.00
2018-08-17T04:23:15.501Z,48.00
2018-08-17T04:24:15.470Z,52.00
2018-08-17T04:25:15.442Z,52.00
2018-08-17T04:26:15.417Z,52.00
2018-08-17T04:27:15.393Z,52.00
2018-08-17T04:28:15.365Z,52.00
2018-08-17T04:29:15.345Z,52.00
2018-08-17T04:30:15.311Z,52.00
2018-08-17T04:31:15.293Z,52.00
2018-08-17T04:32:15.261Z,56.00
2018-08-17T04:33:15.240Z,60.00
2018-08-17T04:34:15.210Z,68.00
2018-08-17T04:35:15.205Z,76.00
2018-08-17T04:36:15.160Z,84.00
2018-08-17T04:37:15.138Z,92.00
2018-08-17T04:38:15.113Z,100.00
2018-08-17T04:39:15.093Z,108.00
2018-08-17T04:40:15.057Z,120.00
2018-08-17T04:41:15.040Z,132.00
2018-08-17T04:42:15.006Z,144.00
2018-08-17T04:43:14.983Z,160.00
2018-08-17T04:44:14.964Z,172.00
2018-08-17T04:45:14.931Z,180.00
2018-08-17T04:46:14.917Z,180.00
2018-08-17T04:47:14.887Z,172.00
2018-08-17T04:48:14.860Z,160.00
2018-08-17T04:49:14.845Z,152.00
2018-08-17T04:50:14.809Z,148.00
2018-08-17T04:51:14.781Z,148.00
2018-08-17T04:52:14.760Z,148.00
2018-08-17T04:53:14.731Z,156.00
2018-08-17T04:54:14.709Z,168.00
2018-08-17T04:55:14.678Z,184.00
2018-08-17T04:56:14.664Z,200.00
2018-08-17T04:57:14.630Z,216.00
2018-08-17T04:58:14.611Z,228.00
2018-08-17T04:59:14.586Z,236.00
2018-08-17T05:00:14.572Z,244.00
2018-08-17T05:01:14.528Z,256.00
2018-08-17T05:02:14.511Z,256.00
2018-08-17T05:03:14.504Z,252.00
2018-08-17T05:04:14.458Z,252.00
2018-08-17T05:05:14.426Z,264.00
2018-08-17T05:06:14.411Z,280.00
2018-08-17T05:07:14.379Z,284.00
2018-08-17T05:08:14.358Z,276.00
2018-08-17T05:09:14.332Z,256.00
2018-08-17T05:10:14.303Z,240.00
2018-08-17T05:11:14.282Z,220.00
2018-08-17T05:12:14.250Z,196.00
2018-08-17T05:13:14.228Z,176.00
2018-08-17T05:14:14.209Z,160.00
2018-08-17T05:15:14.211Z,144.00
2018-08-17T05:16:14.151Z,136.00
2018-08-17T05:17:14.125Z,116.00
2018-08-17T05:18:14.107Z,108.00
2018-08-17T05:19:14.078Z,112.00
2018-08-17T05:20:14.055Z,120.00
2018-08-17T05:21:14.026Z,144.00
2018-08-17T05:22:14.005Z,164.00
2018-08-17T05:23:14.035Z,176.00
2018-08-17T05:24:13.948Z,204.00
2018-08-17T05:25:13.930Z,236.00
2018-08-17T05:26:13.904Z,220.00
2018-08-17T05:27:13.873Z,176.00
2018-08-17T05:28:13.856Z,144.00
2018-08-17T05:29:13.829Z,116.00
2018-08-17T05:30:13.799Z,96.00
2018-08-17T05:31:13.790Z,88.00
2018-08-17T05:32:13.748Z,80.00
2018-08-17T05:33:13.730Z,76.00
2018-08-17T05:34:13.710Z,72.00
2018-08-17T05:35:13.678Z,80.00
2018-08-17T05:36:13.648Z,96.00
2018-08-17T05:37:13.628Z,136.00
2018-08-17T05:38:13.599Z,160.00
2018-08-17T05:39:13.569Z,188.00
2018-08-17T05:40:13.555Z,228.00
2018-08-17T05:41:13.560Z,264.00
2018-08-17T05:42:13.508Z,280.00
2018-08-17T05:43:13.476Z,276.00
2018-08-17T05:44:13.450Z,252.00
2018-08-17T05:45:13.468Z,228.00
2018-08-17T05:46:13.401Z,200.00
2018-08-17T05:47:13.368Z,180.00
2018-08-17T05:48:13.362Z,160.00
2018-08-17T05:49:13.330Z,140.00
2018-08-17T05:50:13.789Z,128.00
2018-08-17T05:51:13.271Z,116.00
2018-08-17T05:52:13.250Z,108.00
2018-08-17T05:53:13.223Z,104.00
2018-08-17T05:54:13.198Z,96.00
2018-08-17T05:55:13.189Z,92.00
2018-08-17T05:56:13.147Z,96.00
2018-08-17T05:57:13.121Z,96.00
2018-08-17T05:58:13.101Z,100.00
2018-08-17T05:59:13.072Z,104.00
2018-08-17T06:00:13.047Z,112.00
2018-08-17T06:01:13.016Z,116.00
2018-08-17T06:02:13.001Z,116.00
2018-08-17T06:03:12.965Z,124.00
2018-08-17T06:04:12.948Z,136.00
2018-08-17T06:05:12.920Z,152.00
2018-08-17T06:06:12.893Z,156.00
2018-08-17T06:07:12.867Z,156.00
2018-08-17T06:08:12.842Z,156.00
2018-08-17T06:09:12.827Z,156.00
2018-08-17T06:10:12.796Z,160.00
2018-08-17T06:11:12.904Z,160.00
2018-08-17T06:12:12.747Z,168.00
2018-08-17T06:13:12.716Z,168.00
2018-08-17T06:14:12.694Z,172.00
2018-08-17T06:15:12.661Z,172.00
2018-08-17T06:16:12.653Z,168.00
2018-08-17T06:17:12.612Z,160.00
2018-08-17T06:18:12.598Z,144.00
2018-08-17T06:19:12.619Z,136.00
2018-08-17T06:20:12.534Z,136.00
2018-08-17T06:21:12.515Z,144.00
2018-08-17T06:22:12.486Z,156.00
2018-08-17T06:23:12.467Z,160.00
2018-08-17T06:24:12.436Z,180.00
2018-08-17T06:25:12.410Z,192.00
2018-08-17T06:26:12.393Z,208.00
2018-08-17T06:27:12.362Z,232.00
2018-08-17T06:28:12.334Z,264.00
2018-08-17T06:29:12.313Z,284.00
2018-08-17T06:30:12.283Z,304.00
2018-08-17T06:31:12.265Z,320.00
2018-08-17T06:32:12.231Z,344.00
2018-08-17T06:33:12.212Z,360.00
2018-08-17T06:34:12.181Z,364.00
2018-08-17T06:35:12.168Z,360.00
2018-08-17T06:36:12.141Z,356.00
2018-08-17T06:37:12.170Z,352.00
2018-08-17T06:38:12.081Z,356.00
2018-08-17T06:39:12.055Z,348.00
2018-08-17T06:40:12.031Z,336.00
2018-08-17T06:41:12.008Z,324.00
2018-08-17T06:42:11.976Z,304.00
2018-08-17T06:43:11.957Z,276.00
2018-08-17T06:44:11.929Z,252.00
2018-08-17T06:45:11.913Z,236.00
2018-08-17T06:46:11.880Z,224.00
2018-08-17T06:47:11.848Z,216.00
2018-08-17T06:48:11.831Z,208.00
2018-08-17T06:49:11.805Z,204.00
2018-08-17T06:50:11.774Z,196.00
2018-08-17T06:51:11.846Z,188.00
2018-08-17T06:52:11.726Z,176.00
2018-08-17T06:53:11.699Z,168.00
2018-08-17T06:54:11.670Z,176.00
2018-08-17T06:55:11.648Z,180.00
2018-08-17T06:56:11.627Z,180.00
2018-08-17T06:57:11.661Z,176.00
2018-08-17T06:58:11.571Z,176.00
2018-08-17T06:59:11.542Z,172.00
2018-08-17T07:00:11.543Z,172.00
2018-08-17T07:01:11.496Z,176.00
2018-08-17T07:02:11.468Z,184.00
2018-08-17T07:03:11.448Z,192.00
2018-08-17T07:04:11.416Z,200.00
2018-08-17T07:05:11.418Z,204.00
2018-08-17T07:06:11.370Z,208.00
2018-08-17T07:07:11.337Z,212.00
2018-08-17T07:08:11.315Z,224.00
2018-08-17T07:09:11.337Z,232.00
2018-08-17T07:10:11.268Z,240.00
2018-08-17T07:11:11.247Z,256.00
2018-08-17T07:12:11.217Z,276.00
2018-08-17T07:13:11.188Z,288.00
2018-08-17T07:14:11.166Z,292.00
2018-08-17T07:15:11.147Z,296.00
2018-08-17T07:16:11.114Z,304.00
2018-08-17T07:17:11.099Z,316.00
2018-08-17T07:18:11.057Z,320.00
2018-08-17T07:19:11.038Z,332.00
2018-08-17T07:20:11.012Z,344.00
2018-08-17T07:21:10.989Z,356.00
2018-08-17T07:22:10.960Z,360.00
2018-08-17T07:23:10.934Z,372.00
2018-08-17T07:24:10.908Z,388.00
2018-08-17T07:25:10.892Z,408.00
2018-08-17T07:26:10.858Z,436.00
2018-08-17T07:27:10.835Z,464.00
2018-08-17T07:28:10.860Z,488.00
2018-08-17T07:29:10.780Z,496.00
2018-08-17T07:30:10.763Z,508.00
2018-08-17T07:31:10.746Z,528.00
2018-08-17T07:32:10.707Z,560.00
2018-08-17T07:33:10.683Z,600.00
2018-08-17T07:34:10.656Z,664.00
2018-08-17T07:35:10.634Z,736.00
2018-08-17T07:36:10.601Z,832.00
2018-08-17T07:37:10.593Z,952.00
2018-08-17T07:38:10.550Z,1112.00
2018-08-17T07:39:10.530Z,1232.00
2018-08-17T07:40:10.505Z,1460.00
2018-08-17T07:41:10.483Z,1696.00
2018-08-17T07:42:10.455Z,1876.00
2018-08-17T07:43:10.428Z,1928.00
2018-08-17T07:44:10.404Z,1924.00
2018-08-17T07:45:10.385Z,1944.00
2018-08-17T07:46:10.355Z,1948.00
2018-08-17T07:47:10.376Z,1992.00
2018-08-17T07:48:10.411Z,2004.00
2018-08-17T07:49:10.286Z,1980.00
2018-08-17T07:50:10.278Z,1960.00
2018-08-17T07:51:10.227Z,1980.00
2018-08-17T07:52:10.201Z,2024.00
2018-08-17T07:53:10.181Z,1952.00
2018-08-17T07:54:10.154Z,1916.00
2018-08-17T07:55:10.124Z,1880.00
2018-08-17T07:56:10.101Z,1904.00
2018-08-17T07:57:10.073Z,1948.00
2018-08-17T07:58:10.054Z,1948.00
2018-08-17T07:59:10.113Z,1976.00
2018-08-17T08:00:10.004Z,1996.00
2018-08-17T08:01:09.975Z,1976.00
2018-08-17T08:02:09.974Z,1960.00
2018-08-17T08:03:09.928Z,1920.00
2018-08-17T08:04:09.909Z,1880.00
2018-08-17T08:05:09.874Z,1880.00
2018-08-17T08:06:09.847Z,1856.00
2018-08-17T08:07:09.820Z,1832.00
2018-08-17T08:08:09.799Z,1828.00
2018-08-17T08:09:09.770Z,1856.00
2018-08-17T08:10:09.747Z,1980.00
2018-08-17T08:11:09.792Z,2168.00
2018-08-17T08:12:09.701Z,2448.00
2018-08-17T08:13:09.675Z,2732.00
2018-08-17T08:14:09.644Z,3084.00
2018-08-17T08:15:09.627Z,3428.00
2018-08-17T08:16:09.595Z,3680.00
2018-08-17T08:17:09.577Z,3868.00
2018-08-17T08:18:09.547Z,3940.00
2018-08-17T08:19:09.518Z,3972.00
2018-08-17T08:20:09.502Z,4000.00
2018-08-17T08:21:09.476Z,3968.00
2018-08-17T08:22:09.448Z,3916.00
2018-08-17T08:23:09.421Z,3840.00
2018-08-17T08:24:09.400Z,3760.00
2018-08-17T08:25:09.366Z,3704.00
2018-08-17T08:26:09.405Z,3764.00
2018-08-17T08:27:09.322Z,3824.00
2018-08-17T08:28:09.296Z,3888.00
2018-08-17T08:29:09.281Z,3920.00
2018-08-17T08:30:09.249Z,3964.00
2018-08-17T08:31:09.217Z,4016.00
2018-08-17T08:32:09.205Z,4048.00
2018-08-17T08:33:09.170Z,4012.00
2018-08-17T08:34:09.158Z,3976.00
2018-08-17T08:35:09.126Z,3976.00
2018-08-17T08:36:09.101Z,4036.00
2018-08-17T08:37:09.067Z,4124.00
2018-08-17T08:38:09.054Z,4188.00
2018-08-17T08:39:09.027Z,4244.00
2018-08-17T08:40:08.996Z,4344.00
2018-08-17T08:41:08.972Z,4300.00
2018-08-17T08:42:08.949Z,4188.00
2018-08-17T08:43:08.954Z,4416.00
2018-08-17T08:44:08.898Z,4416.00
2018-08-17T08:45:08.871Z,4400.00
2018-08-17T08:46:08.854Z,4572.00
2018-08-17T08:47:08.828Z,5012.00
2018-08-17T08:48:08.800Z,5336.00
2018-08-17T08:49:08.773Z,5208.00
2018-08-17T08:50:08.751Z,4844.00
2018-08-17T08:51:08.721Z,4312.00
2018-08-17T08:52:08.700Z,3952.00
2018-08-17T08:53:08.678Z,3760.00
2018-08-17T08:54:08.663Z,3604.00
2018-08-17T08:55:08.626Z,4044.00
2018-08-17T08:56:08.768Z,4416.00
2018-08-17T08:57:08.572Z,4408.00
2018-08-17T08:58:08.556Z,4392.00
2018-08-17T08:59:08.529Z,4284.00
2018-08-17T09:00:08.508Z,4192.00
2018-08-17T09:01:08.478Z,4184.00
2018-08-17T09:02:08.452Z,4592.00
2018-08-17T09:03:08.428Z,4944.00
2018-08-17T09:04:08.405Z,4708.00
2018-08-17T09:05:08.374Z,4100.00
2018-08-17T09:06:08.358Z,3724.00
2018-08-17T09:07:08.327Z,3588.00
2018-08-17T09:08:08.313Z,3716.00
2018-08-17T09:09:08.271Z,3528.00
2018-08-17T09:10:08.256Z,3020.00
2018-08-17T09:11:08.225Z,2712.00
2018-08-17T09:12:08.234Z,2840.00
2018-08-17T09:13:08.179Z,3144.00
2018-08-17T09:14:08.146Z,3548.00
2018-08-17T09:15:08.127Z,3904.00
2018-08-17T09:16:08.102Z,3700.00
2018-08-17T09:17:08.075Z,3280.00
2018-08-17T09:18:08.048Z,2988.00
2018-08-17T09:19:08.028Z,3292.00
2018-08-17T09:20:08.048Z,3380.00
2018-08-17T09:21:07.978Z,3356.00
2018-08-17T09:22:07.948Z,3464.00
2018-08-17T09:23:07.929Z,3644.00
2018-08-17T09:24:07.900Z,3900.00
2018-08-17T09:25:07.896Z,4336.00
2018-08-17T09:26:07.849Z,5040.00
2018-08-17T09:27:07.824Z,5776.00
2018-08-17T09:28:07.796Z,6016.00
2018-08-17T09:29:07.828Z,5984.00
2018-08-17T09:30:07.854Z,5908.00
2018-08-17T09:31:07.721Z,5852.00
2018-08-17T09:32:07.701Z,5648.00
2018-08-17T09:33:07.672Z,5256.00
2018-08-17T09:34:07.652Z,5264.00
2018-08-17T09:35:07.618Z,5608.00
2018-08-17T09:36:07.674Z,5680.00
2018-08-17T09:37:07.568Z,5428.00
2018-08-17T09:38:07.554Z,5428.00
2018-08-17T09:39:07.518Z,5380.00
2018-08-17T09:40:07.503Z,5208.00
2018-08-17T09:41:07.468Z,5128.00
2018-08-17T09:42:07.545Z,5192.00
2018-08-17T09:43:07.424Z,5240.00
2018-08-17T09:44:07.400Z,5012.00
2018-08-17T09:45:07.373Z,4904.00
2018-08-17T09:46:07.350Z,4812.00
2018-08-17T09:47:07.322Z,4908.00
2018-08-17T09:48:07.295Z,5036.00
2018-08-17T09:49:07.273Z,5184.00
2018-08-17T09:50:07.252Z,5136.00
2018-08-17T09:51:07.227Z,4996.00
2018-08-17T09:52:07.199Z,4796.00
2018-08-17T09:53:07.175Z,4708.00
2018-08-17T09:54:07.158Z,4532.00
2018-08-17T09:55:07.128Z,4320.00
2018-08-17T09:56:07.093Z,4180.00
2018-08-17T09:57:07.117Z,4376.00
2018-08-17T09:58:07.050Z,4476.00
2018-08-17T09:59:07.020Z,4512.00
2018-08-17T10:00:07.001Z,4360.00
2018-08-17T10:01:06.976Z,3876.00
2018-08-17T10:02:06.947Z,3276.00
2018-08-17T10:03:06.926Z,2676.00
2018-08-17T10:04:06.970Z,2392.00
2018-08-17T10:05:06.873Z,2200.00
2018-08-17T10:06:06.852Z,2464.00
2018-08-17T10:07:06.826Z,3004.00
2018-08-17T10:08:06.805Z,3320.00
2018-08-17T10:09:06.770Z,3432.00
2018-08-17T10:10:06.755Z,3212.00
2018-08-17T10:11:06.726Z,2704.00
2018-08-17T10:12:06.699Z,2496.00
2018-08-17T10:13:06.672Z,2032.00
2018-08-17T10:14:06.659Z,1928.00
2018-08-17T10:15:06.631Z,2088.00
2018-08-17T10:16:06.603Z,2460.00
2018-08-17T10:17:06.581Z,2676.00
2018-08-17T10:18:06.549Z,2816.00
2018-08-17T10:19:06.533Z,2696.00
2018-08-17T10:20:06.503Z,2552.00
2018-08-17T10:21:06.602Z,2424.00
2018-08-17T10:22:06.879Z,2424.00
2018-08-17T10:23:06.445Z,2432.00
2018-08-17T10:24:06.399Z,2228.00
2018-08-17T10:25:06.374Z,1976.00
2018-08-17T10:26:06.356Z,2260.00
2018-08-17T10:27:06.326Z,2644.00
2018-08-17T10:28:06.303Z,2736.00
2018-08-17T10:29:06.284Z,2704.00
2018-08-17T10:30:06.248Z,2736.00
2018-08-17T10:31:06.223Z,2616.00
2018-08-17T10:32:06.200Z,2436.00
2018-08-17T10:33:06.171Z,2452.00
2018-08-17T10:34:06.245Z,2636.00
2018-08-17T10:35:06.125Z,2884.00
2018-08-17T10:36:06.099Z,3148.00
2018-08-17T10:37:06.070Z,3568.00
2018-08-17T10:38:06.056Z,3444.00
2018-08-17T10:39:06.026Z,2936.00
2018-08-17T10:40:05.999Z,2760.00
2018-08-17T10:41:05.971Z,3140.00
2018-08-17T10:42:05.945Z,3572.00
2018-08-17T10:43:05.932Z,4064.00
2018-08-17T10:44:05.899Z,3952.00
2018-08-17T10:45:05.877Z,3768.00
2018-08-17T10:46:05.851Z,3700.00
2018-08-17T10:47:05.823Z,3676.00
2018-08-17T10:48:05.796Z,3960.00
2018-08-17T10:49:05.827Z,4596.00
2018-08-17T10:50:05.757Z,5388.00
2018-08-17T10:51:05.726Z,5852.00
2018-08-17T10:52:05.693Z,5692.00
2018-08-17T10:53:05.674Z,5452.00
2018-08-17T10:54:05.641Z,5624.00
2018-08-17T10:55:05.623Z,5492.00
2018-08-17T10:56:05.603Z,4904.00
2018-08-17T10:57:05.574Z,4804.00
2018-08-17T10:58:05.552Z,5456.00
2018-08-17T10:59:05.526Z,5408.00
2018-08-17T11:00:05.495Z,5036.00
2018-08-17T11:01:05.470Z,4424.00
2018-08-17T11:02:05.453Z,4152.00
2018-08-17T11:03:05.428Z,4160.00
2018-08-17T11:04:05.394Z,4176.00
2018-08-17T11:05:05.376Z,4680.00
2018-08-17T11:06:05.372Z,5280.00
2018-08-17T11:07:05.324Z,5852.00
2018-08-17T11:08:05.300Z,6096.00
2018-08-17T11:09:05.279Z,6052.00
2018-08-17T11:10:05.252Z,5564.00
2018-08-17T11:11:05.275Z,5320.00
2018-08-17T11:12:05.196Z,5204.00
2018-08-17T11:13:05.180Z,5156.00
2018-08-17T11:14:05.154Z,4704.00
2018-08-17T11:15:05.124Z,4600.00
2018-08-17T11:16:05.104Z,4880.00
2018-08-17T11:17:05.181Z,5092.00
2018-08-17T11:18:05.048Z,5372.00
2018-08-17T11:19:05.022Z,5848.00
2018-08-17T11:20:05.007Z,5588.00
2018-08-17T11:21:04.982Z,4988.00
2018-08-17T11:22:04.954Z,4288.00
2018-08-17T11:23:04.926Z,4032.00
2018-08-17T11:24:04.909Z,3608.00
2018-08-17T11:25:04.887Z,2916.00
2018-08-17T11:26:04.856Z,2564.00
2018-08-17T11:27:04.832Z,2172.00
2018-08-17T11:28:04.808Z,2048.00
2018-08-17T11:29:04.778Z,1920.00
2018-08-17T11:30:04.762Z,1884.00
2018-08-17T11:31:04.735Z,1636.00
2018-08-17T11:32:04.707Z,1404.00
2018-08-17T11:33:04.682Z,1284.00
2018-08-17T11:34:04.661Z,1408.00
2018-08-17T11:35:04.632Z,1380.00
2018-08-17T11:36:04.612Z,1540.00
2018-08-17T11:37:04.607Z,1696.00
2018-08-17T11:38:04.560Z,1800.00
2018-08-17T11:39:04.540Z,2460.00
2018-08-17T11:40:04.516Z,3004.00
2018-08-17T11:41:04.483Z,3424.00
2018-08-17T11:42:04.462Z,4700.00
2018-08-17T11:43:04.439Z,5184.00
2018-08-17T11:44:04.406Z,5424.00
2018-08-17T11:45:04.393Z,5580.00
2018-08-17T11:46:04.356Z,5648.00
2018-08-17T11:47:04.339Z,5696.00
2018-08-17T11:48:04.356Z,5476.00
2018-08-17T11:49:04.293Z,5332.00
2018-08-17T11:50:04.259Z,4704.00
2018-08-17T11:51:04.239Z,4596.00
2018-08-17T11:52:04.215Z,4196.00
2018-08-17T11:53:04.184Z,3652.00
2018-08-17T11:54:04.197Z,3504.00
2018-08-17T11:55:04.224Z,2880.00
2018-08-17T11:56:04.113Z,2176.00
2018-08-17T11:57:04.093Z,1660.00
2018-08-17T11:58:04.078Z,1424.00
2018-08-17T11:59:04.041Z,1360.00
2018-08-17T12:00:04.021Z,1576.00
2018-08-17T12:01:04.024Z,1952.00
2018-08-17T12:02:03.966Z,2048.00
2018-08-17T12:03:03.945Z,1792.00
2018-08-17T12:04:03.918Z,2444.00
2018-08-17T12:05:03.889Z,3080.00
2018-08-17T12:06:03.871Z,2924.00
2018-08-17T12:07:03.849Z,2476.00
2018-08-17T12:08:03.846Z,2248.00
2018-08-17T12:09:03.793Z,2744.00
2018-08-17T12:10:03.770Z,3316.00
2018-08-17T12:11:03.748Z,3768.00
2018-08-17T12:12:03.718Z,3856.00
2018-08-17T12:13:03.690Z,3440.00
2018-08-17T12:14:03.672Z,2400.00
2018-08-17T12:15:03.652Z,2208.00
2018-08-17T12:16:03.618Z,2564.00
2018-08-17T12:17:03.601Z,2716.00
2018-08-17T12:18:03.575Z,2536.00
2018-08-17T12:19:03.542Z,2776.00
2018-08-17T12:20:03.519Z,2940.00
2018-08-17T12:21:03.496Z,3320.00
2018-08-17T12:22:03.466Z,3620.00
2018-08-17T12:23:03.440Z,3828.00
2018-08-17T12:24:03.421Z,4120.00
2018-08-17T12:25:03.463Z,4516.00
2018-08-17T12:26:03.366Z,4796.00
2018-08-17T12:27:03.350Z,4704.00
2018-08-17T12:28:03.319Z,4656.00
2018-08-17T12:29:03.289Z,4400.00
2018-08-17T12:30:03.272Z,4540.00
2018-08-17T12:31:03.245Z,4684.00
2018-08-17T12:32:03.269Z,4768.00
2018-08-17T12:33:03.191Z,4792.00
2018-08-17T12:34:03.172Z,4500.00
2018-08-17T12:35:03.137Z,4140.00